Aérodrome :







RETROUVEZ-NOUS SUR...

 
LOGIN :

S'inscrire | Disclaimer

   EN    FR    IT 

 









Légende :    VFR   VFR Marginal   IFR   IFR Intensif   IFR Très Intensif
Visi : 
Plafond : 
>= 8 km
>= 3000ft
5 à 8 km
1000 à 3000 ft
1500m à 5 km
500 à 1000 ft
800 à 1500m
200 à 500 ft
< 800m
< 200 ft
Symboles :   Orages  Brouillard  Fortes neiges  Fortes précipitations  Vent > 20 kt






- Altitude de l'aérodrome : 203 ft
- Code IATA : YQY


CYQY - Sydney

DERNIER METAR :
  • 311900Z 22007KT 10SM -RA OVC004 14/14 A2980 RMK NS8 SLP093 DENSITY ALT 400FT

METARs EXPIRÉS :
  • 311800Z 20011G18KT 10SM -RA OVC004 13/13 A2980 RMK NS8 SLP095
  • 311700Z 21011KT 10SM -RA OVC004 13/13 A2979 RMK NS8 SLP090

TAF TAF CYQY
Valide du 31 à 18h jusqu'au 01 à 06h UTC


311730Z 3118/0106 21010G20KT 4SM -SHRA BR OVC004
TEMPO 3118/3120 P6SM -RA SCT004 BKN010 OVC070
FM312000 21010G20KT P6SM BKN008 OVC070
TEMPO 3120/3122 SCT008 BKN070
FM312200 20010G20KT P6SM FEW012 BKN220
FM010300 20010G20KT P6SM FEW012 OVC150
TEMPO 0103/0106 BKN012 OVC150 RMK NXT FCST BY 010000Z
FIR CZQM / Amérique du Nord



MET'MAP, la Météo Aéronautique d'un coup d'oeil ! - Copyright ORBIFLY Décembre 2007 - Disclaimer

ORBIFLY MET'MAP TEAM :

Programmation & Développement : Alexandra Zaïnal
Sur une idée originale de : Baudouin d'Aumeries
Assistance à la programmation : Marc-Olivier Méhu
Soutien technique & logistique : Manuel Goepfert

Contact : metmap@orbifly.com




SOURCES & CREDITS :

   NOAA